Time;durP1;ratioP1;P1;durP2;ratioP2;P2;SDS_P1;SDS_P2;PMS_P1;PMS_P2;Temp;Humidity;BMP_temperature;BMP_pressure;BME280_temperature;BME280_humidity;BME280_pressure;Samples;Min_cycle;Max_cycle;Signal;HPM_P1;HPM_P2
2023/06/08 00:01:37;;;;;;;8.07;4.83;;;;;;;;;;5179721;27;20448;-57
2023/06/08 00:04:07;;;;;;;7.17;3.83;;;22.00;68.40;;;;;;5180206;27;20438;-58
2023/06/08 00:06:37;;;;;;;5.70;4.10;;;;;;;;;;5179816;27;20446;-57
2023/06/08 00:09:05;;;;;;;4.90;3.27;;;;;;;;;;5180156;27;20465;-54
2023/06/08 00:11:32;;;;;;;5.37;3.47;;;;;;;;;;5179256;27;20453;-58
2023/06/08 00:14:03;;;;;;;5.00;3.60;;;22.00;68.20;;;;;;5179810;27;20441;-57
2023/06/08 00:16:30;;;;;;;4.20;3.50;;;;;;;;;;5179645;27;20508;-58
2023/06/08 00:18:57;;;;;;;5.70;3.47;;;;;;;;;;5179791;27;20482;-60
2023/06/08 00:21:26;;;;;;;8.90;3.43;;;21.90;68.10;;;;;;5179594;27;20442;-58
2023/06/08 00:23:53;;;;;;;4.90;3.40;;;;;;;;;;5179252;27;20456;-58
2023/06/08 00:26:21;;;;;;;4.80;3.40;;;;;;;;;;5179565;27;20434;-57
2023/06/08 00:28:48;;;;;;;5.27;3.80;;;;;;;;;;5179500;27;20479;-60
2023/06/08 00:31:16;;;;;;;4.47;2.93;;;;;;;;;;5180493;27;20856;-60
2023/06/08 00:33:43;;;;;;;6.57;3.33;;;;;;;;;;5179593;27;20445;-58
2023/06/08 00:36:10;;;;;;;5.47;3.73;;;;;;;;;;5179467;27;20515;-59
2023/06/08 00:38:39;;;;;;;4.70;4.00;;;;;;;;;;5179755;27;20477;-57
2023/06/08 00:41:06;;;;;;;6.03;3.90;;;21.60;68.40;;;;;;5179134;27;20465;-59
2023/06/08 00:43:34;;;;;;;5.47;3.23;;;;;;;;;;5179505;27;20511;-60
2023/06/08 00:46:02;;;;;;;6.10;4.40;;;;;;;;;;5179596;27;20454;-58
2023/06/08 00:48:29;;;;;;;7.97;3.77;;;21.60;68.60;;;;;;5179364;27;20486;-58
2023/06/08 00:50:58;;;;;;;4.07;3.20;;;21.50;67.60;;;;;;5179568;27;20838;-57
2023/06/08 00:53:26;;;;;;;5.50;3.37;;;;;;;;;;5179641;27;20501;-59
2023/06/08 00:55:55;;;;;;;5.43;4.00;;;21.40;68.40;;;;;;5179556;27;20426;-59
2023/06/08 00:58:23;;;;;;;4.20;3.13;;;;;;;;;;5179720;27;20567;-58
2023/06/08 01:00:50;;;;;;;6.10;3.30;;;;;;;;;;5179534;27;20573;-59
2023/06/08 01:03:19;;;;;;;6.10;3.47;;;;;;;;;;5179587;27;20446;-57
2023/06/08 01:05:52;;;;;;;5.80;3.53;;;;;;;;;;5179405;27;20461;-57
2023/06/08 01:08:28;;;;;;;5.57;3.20;;;21.40;68.00;;;;;;5179309;27;20462;-59
2023/06/08 01:11:04;;;;;;;4.93;3.83;;;21.10;67.60;;;;;;5179722;27;20414;-59
2023/06/08 01:13:39;;;;;;;5.20;4.00;;;21.10;67.70;;;;;;5179223;27;20547;-57
2023/06/08 01:16:11;;;;;;;4.83;3.73;;;21.10;67.70;;;;;;5179266;27;20455;-58
2023/06/08 01:18:40;;;;;;;3.00;2.70;;;21.00;68.10;;;;;;5179621;27;20905;-55
2023/06/08 01:21:24;;;;;;;4.50;3.27;;;21.00;68.10;;;;;;5179359;27;20485;-55
2023/06/08 01:24:12;;;;;;;3.40;2.87;;;21.10;68.70;;;;;;5181062;27;20473;-58
2023/06/08 01:26:42;;;;;;;7.37;3.47;;;20.90;64.10;;;;;;5183361;27;20458;-53
2023/06/08 01:29:09;;;;;;;4.33;3.10;;;;;;;;;;5182986;27;20513;-60
2023/06/08 01:31:37;;;;;;;6.70;4.20;;;;;;;;;;5182832;27;20549;-60
2023/06/08 01:34:05;;;;;;;5.50;3.57;;;;;;;;;;5183356;27;20450;-55
2023/06/08 01:36:42;;;;;;;4.27;3.87;;;21.00;68.90;;;;;;5183663;27;20469;-58
2023/06/08 01:39:18;;;;;;;4.80;3.40;;;21.20;69.40;;;;;;5182729;27;20545;-59
2023/06/08 01:41:46;;;;;;;5.13;4.60;;;;;;;;;;5182933;27;20422;-58
2023/06/08 01:44:15;;;;;;;5.07;4.00;;;20.70;69.70;;;;;;5182731;27;21028;-59
2023/06/08 01:46:48;;;;;;;4.60;3.83;;;20.80;70.90;;;;;;5182347;27;20950;-57
2023/06/08 01:49:16;;;;;;;6.70;3.50;;;20.80;71.80;;;;;;5182754;27;20865;-58
2023/06/08 01:51:43;;;;;;;6.20;4.27;;;20.80;72.10;;;;;;5182697;27;20458;-57
2023/06/08 01:54:12;;;;;;;5.93;4.70;;;;;;;;;;5183074;27;20448;-57
2023/06/08 01:56:39;;;;;;;5.00;3.47;;;;;;;;;;5182742;27;20498;-58
2023/06/08 01:59:06;;;;;;;5.80;4.20;;;;;;;;;;5182592;27;20501;-57
2023/06/08 02:01:34;;;;;;;5.37;4.43;;;;;;;;;;5182443;27;20569;-59
2023/06/08 02:04:01;;;;;;;5.87;4.30;;;;;;;;;;5183025;27;20444;-59
2023/06/08 02:06:28;;;;;;;4.67;3.40;;;;;;;;;;5182050;27;20445;-58
2023/06/08 02:08:55;;;;;;;8.60;4.20;;;;;;;;;;5182345;27;20541;-58
2023/06/08 02:11:25;;;;;;;4.43;3.70;;;20.40;73.80;;;;;;5182697;27;20438;-60
2023/06/08 02:13:52;;;;;;;6.10;3.60;;;;;;;;;;5182305;27;20481;-60
2023/06/08 02:16:20;;;;;;;8.97;4.40;;;;;;;;;;5182396;27;20533;-59
2023/06/08 02:18:50;;;;;;;6.63;3.47;;;;;;;;;;5182735;27;20446;-59
2023/06/08 02:21:17;;;;;;;5.10;4.00;;;;;;;;;;5182414;27;20807;-60
2023/06/08 02:23:44;;;;;;;6.00;4.20;;;;;;;;;;5182370;27;21087;-60
2023/06/08 02:26:12;;;;;;;6.80;3.80;;;;;;;;;;5182375;27;20480;-59
2023/06/08 02:28:40;;;;;;;7.60;3.33;;;20.20;73.70;;;;;;5182311;27;20442;-60
2023/06/08 02:31:07;;;;;;;5.53;4.50;;;;;;;;;;5182334;27;20430;-58
2023/06/08 02:33:34;;;;;;;5.07;4.00;;;;;;;;;;5181984;27;20473;-60
2023/06/08 02:36:02;;;;;;;8.13;4.17;;;;;;;;;;5181405;27;20445;-53
2023/06/08 02:38:31;;;;;;;5.93;4.33;;;;;;;;;;5182076;27;20469;-57
2023/06/08 02:41:04;;;;;;;4.57;3.60;;;19.70;73.20;;;;;;5181622;27;20530;-58
2023/06/08 02:43:31;;;;;;;5.83;3.77;;;;;;;;;;5182124;27;20453;-57
2023/06/08 02:46:00;;;;;;;4.60;3.30;;;19.70;73.90;;;;;;5181558;27;20560;-57
2023/06/08 02:48:27;;;;;;;4.47;3.10;;;;;;;;;;5181754;27;20480;-58
2023/06/08 02:50:54;;;;;;;5.40;3.50;;;;;;;;;;5182218;27;20462;-58
2023/06/08 02:53:23;;;;;;;4.43;2.80;;;19.80;74.40;;;;;;5181492;27;20473;-60
2023/06/08 02:55:50;;;;;;;4.90;4.17;;;;;;;;;;5182043;27;20438;-59
2023/06/08 02:58:18;;;;;;;4.77;4.30;;;;;;;;;;5181480;27;20526;-58
2023/06/08 03:00:46;;;;;;;8.90;5.10;;;;;;;;;;5181874;27;20474;-57
2023/06/08 03:03:14;;;;;;;5.57;3.80;;;19.70;75.00;;;;;;5182226;27;20470;-58
2023/06/08 03:05:43;;;;;;;5.40;4.03;;;19.70;71.70;;;;;;5181733;27;20488;-57
2023/06/08 03:08:11;;;;;;;6.00;3.13;;;;;;;;;;5181669;27;20507;-59
2023/06/08 03:10:38;;;;;;;5.33;4.00;;;;;;;;;;5181003;27;20968;-59
2023/06/08 03:13:05;;;;;;;4.43;3.97;;;;;;;;;;5181134;27;21240;-60
2023/06/08 03:15:32;;;;;;;5.10;4.70;;;;;;;;;;5181034;27;20961;-59
2023/06/08 03:18:01;;;;;;;4.70;3.73;;;;;;;;;;5180522;27;20444;-58
2023/06/08 03:20:29;;;;;;;6.93;3.80;;;;;;;;;;5179231;27;20779;-58
2023/06/08 03:22:57;;;;;;;4.73;4.20;;;;;;;;;;5178639;27;20849;-60
2023/06/08 03:25:24;;;;;;;7.30;4.73;;;;;;;;;;5179105;27;20438;-57
2023/06/08 03:27:51;;;;;;;7.73;4.03;;;;;;;;;;5178514;27;20894;-57
2023/06/08 03:30:18;;;;;;;5.47;4.00;;;;;;;;;;5177024;27;20418;-55
2023/06/08 03:32:48;;;;;;;5.80;3.93;;;;;;;;;;5177391;27;20542;-55
2023/06/08 03:35:24;;;;;;;5.10;3.67;;;19.70;68.80;;;;;;5177319;27;20461;-54
2023/06/08 03:37:52;;;;;;;8.27;4.50;;;19.90;72.30;;;;;;5176986;27;20457;-58
2023/06/08 03:40:19;;;;;;;5.47;3.60;;;;;;;;;;5177763;27;20517;-56
2023/06/08 03:42:47;;;;;;;5.83;4.30;;;;;;;;;;5178913;27;20513;-53
2023/06/08 03:45:14;;;;;;;11.67;4.83;;;;;;;;;;5178700;27;20446;-53
2023/06/08 03:47:41;;;;;;;3.97;3.27;;;;;;;;;;5178194;27;20445;-60
2023/06/08 03:50:11;;;;;;;9.97;3.73;;;19.80;68.60;;;;;;5178833;27;20540;-61
2023/06/08 03:52:38;;;;;;;4.40;3.40;;;;;;;;;;5178521;27;20482;-55
2023/06/08 03:55:08;;;;;;;7.73;4.50;;;;;;;;;;5178680;27;20433;-56
2023/06/08 03:57:35;;;;;;;7.70;4.07;;;;;;;;;;5178414;27;20533;-59
2023/06/08 04:00:06;;;;;;;5.83;3.77;;;;;;;;;;5178379;27;20542;-57
2023/06/08 04:02:34;;;;;;;10.43;4.30;;;;;;;;;;5178336;27;20476;-57
2023/06/08 04:05:01;;;;;;;5.27;4.50;;;;;;;;;;5178672;27;20906;-55
2023/06/08 04:07:29;;;;;;;7.50;4.40;;;;;;;;;;5178119;27;20464;-58
2023/06/08 04:09:57;;;;;;;8.00;4.40;;;;;;;;;;5178513;27;20453;-58
2023/06/08 04:12:25;;;;;;;7.60;3.80;;;20.10;71.00;;;;;;5178161;27;20465;-58
2023/06/08 04:14:52;;;;;;;6.50;4.30;;;;;;;;;;5178297;27;20781;-57
2023/06/08 04:17:20;;;;;;;10.17;4.60;;;;;;;;;;5177908;27;20491;-59
2023/06/08 04:19:47;;;;;;;5.20;3.37;;;;;;;;;;5178791;27;20441;-57
2023/06/08 04:22:14;;;;;;;4.90;3.50;;;;;;;;;;5177873;27;20460;-58
2023/06/08 04:24:42;;;;;;;5.30;3.40;;;;;;;;;;5177517;27;20466;-58
2023/06/08 04:27:10;;;;;;;7.90;4.03;;;;;;;;;;5176467;27;20913;-55
2023/06/08 04:29:38;;;;;;;5.07;3.40;;;;;;;;;;5177452;27;20473;-57
2023/06/08 04:32:06;;;;;;;6.33;3.97;;;19.70;65.60;;;;;;5178298;27;20925;-58
2023/06/08 04:34:34;;;;;;;5.77;4.23;;;;;;;;;;5178595;27;20782;-52
2023/06/08 04:37:01;;;;;;;4.67;3.57;;;;;;;;;;5178222;27;20481;-55
2023/06/08 04:39:40;;;;;;;4.90;4.17;;;;;;;;;;5177794;27;20536;-57
2023/06/08 04:42:08;;;;;;;5.20;3.93;;;19.10;67.20;;;;;;5177755;27;20568;-57
2023/06/08 04:44:36;;;;;;;6.07;4.00;;;;;;;;;;5177832;27;20534;-58
2023/06/08 04:47:07;;;;;;;5.83;4.10;;;20.30;69.60;;;;;;5177988;27;20441;-57
2023/06/08 04:49:34;;;;;;;6.50;3.97;;;;;;;;;;5178194;27;20502;-56
2023/06/08 04:52:02;;;;;;;10.80;3.80;;;20.60;66.50;;;;;;5177563;27;20437;-58
2023/06/08 04:54:29;;;;;;;4.63;3.63;;;;;;;;;;5177783;27;20561;-56
2023/06/08 04:56:58;;;;;;;5.00;3.03;;;;;;;;;;5177809;27;20454;-55
2023/06/08 04:59:26;;;;;;;7.37;4.07;;;;;;;;;;5181152;27;20457;-55
2023/06/08 05:01:53;;;;;;;4.63;3.70;;;;;;;;;;5181577;27;20481;-57
2023/06/08 05:04:22;;;;;;;5.63;3.77;;;21.30;68.00;;;;;;5181456;27;20537;-56
2023/06/08 05:06:49;;;;;;;6.73;3.83;;;;;;;;;;5181430;27;20475;-53
2023/06/08 05:09:16;;;;;;;6.97;5.43;;;;;;;;;;5181427;27;20887;-52
2023/06/08 05:11:43;;;;;;;4.43;3.80;;;;;;;;;;5181461;27;20438;-55
2023/06/08 05:14:11;;;;;;;8.70;4.47;;;;;;;;;;5181749;27;20536;-56
2023/06/08 05:16:38;;;;;;;6.00;4.10;;;;;;;;;;5181490;27;20453;-57
2023/06/08 05:19:05;;;;;;;6.87;4.30;;;;;;;;;;5181471;27;20504;-54
2023/06/08 05:21:34;;;;;;;4.60;3.50;;;;;;;;;;5181459;27;20845;-56
2023/06/08 05:24:01;;;;;;;5.63;2.93;;;;;;;;;;5183559;27;20540;-53
2023/06/08 05:26:28;;;;;;;5.43;3.80;;;;;;;;;;5183607;27;20477;-55
2023/06/08 05:28:56;;;;;;;4.50;3.63;;;;;;;;;;5183640;27;20453;-53
2023/06/08 05:31:23;;;;;;;4.60;4.10;;;;;;;;;;5182842;27;20538;-54
2023/06/08 05:33:50;;;;;;;6.60;3.93;;;;;;;;;;5183519;27;20480;-54
2023/06/08 05:36:17;;;;;;;6.33;3.83;;;;;;;;;;5182899;27;20445;-55
2023/06/08 05:38:46;;;;;;;6.60;4.40;;;21.90;65.50;;;;;;5182818;27;20465;-59
2023/06/08 05:41:13;;;;;;;6.20;4.83;;;;;;;;;;5182832;27;20520;-57
2023/06/08 05:43:40;;;;;;;4.77;3.77;;;;;;;;;;5182857;27;20550;-55
2023/06/08 05:46:07;;;;;;;7.63;3.97;;;;;;;;;;5183104;27;20951;-57
2023/06/08 05:48:34;;;;;;;4.73;3.67;;;;;;;;;;5183536;27;20442;-58
2023/06/08 05:51:02;;;;;;;4.00;3.30;;;;;;;;;;5182691;27;20588;-59
2023/06/08 05:53:30;;;;;;;7.80;3.97;;;;;;;;;;5182337;27;20502;-58
2023/06/08 05:55:58;;;;;;;4.93;3.20;;;22.50;62.90;;;;;;5182505;27;20965;-60
2023/06/08 05:58:25;;;;;;;3.87;3.00;;;;;;;;;;5183074;27;20438;-58
2023/06/08 06:00:59;;;;;;;7.20;3.90;;;;;;;;;;5182808;27;20524;-59
2023/06/08 06:03:26;;;;;;;4.90;4.00;;;;;;;;;;5182848;27;20446;-59
2023/06/08 06:05:53;;;;;;;8.83;3.80;;;;;;;;;;5182468;27;20738;-59
2023/06/08 06:08:20;;;;;;;5.53;4.00;;;;;;;;;;5182123;27;20529;-59
2023/06/08 06:10:48;;;;;;;5.90;3.87;;;;;;;;;;5182318;27;20477;-59
2023/06/08 06:13:26;;;;;;;;;;;;;;;;;;;;;
2023/06/08 06:15:53;;;;;;;6.80;3.53;;;;;;;;;;5174822;27;21004;-60
2023/06/08 06:18:20;;;;;;;5.30;3.90;;;;;;;;;;5182053;27;20529;-56
2023/06/08 06:20:47;;;;;;;10.33;3.70;;;;;;;;;;5182548;27;20565;-58
2023/06/08 06:23:15;;;;;;;8.13;4.87;;;;;;;;;;5182248;27;20469;-57
2023/06/08 06:25:42;;;;;;;8.07;3.27;;;;;;;;;;5181778;27;20520;-59
2023/06/08 06:28:09;;;;;;;5.60;4.57;;;;;;;;;;5182087;27;20807;-59
2023/06/08 06:30:37;;;;;;;6.90;3.90;;;23.40;62.10;;;;;;5181937;27;20981;-59
2023/06/08 06:33:04;;;;;;;4.90;3.70;;;;;;;;;;5182299;27;20759;-59
2023/06/08 06:35:32;;;;;;;4.97;3.17;;;;;;;;;;5182491;27;20533;-61
2023/06/08 06:37:59;;;;;;;6.10;3.70;;;;;;;;;;5181972;27;20453;-60
2023/06/08 06:40:26;;;;;;;7.47;4.27;;;;;;;;;;5181929;27;20448;-57
2023/06/08 06:42:53;;;;;;;8.90;4.00;;;;;;;;;;5181613;27;20454;-59
2023/06/08 06:45:20;;;;;;;5.50;3.57;;;;;;;;;;5182016;27;20493;-58
2023/06/08 06:47:49;;;;;;;5.73;4.33;;;24.00;64.00;;;;;;5182180;27;20465;-59
2023/06/08 06:50:16;;;;;;;6.10;4.00;;;;;;;;;;5182108;27;20935;-58
2023/06/08 06:52:43;;;;;;;5.57;4.60;;;;;;;;;;5181817;27;20497;-60
2023/06/08 06:55:10;;;;;;;4.93;4.30;;;;;;;;;;5181629;27;20510;-59
2023/06/08 06:57:37;;;;;;;4.40;3.97;;;;;;;;;;5181863;27;20521;-58
2023/06/08 07:00:10;;;;;;;6.70;3.80;;;24.50;59.80;;;;;;5181585;27;20540;-60
2023/06/08 07:02:38;;;;;;;4.80;3.80;;;;;;;;;;5180898;27;20481;-59
2023/06/08 07:05:08;;;;;;;7.63;4.00;;;24.30;61.40;;;;;;5181295;27;20474;-58
2023/06/08 07:07:35;;;;;;;5.30;4.30;;;;;;;;;;5180561;27;20553;-59
2023/06/08 07:10:02;;;;;;;5.43;3.37;;;;;;;;;;5161469;27;20447;-59
2023/06/08 07:12:30;;;;;;;8.30;5.93;;;;;;;;;;5160236;27;20463;-57
2023/06/08 07:14:57;;;;;;;5.00;3.60;;;;;;;;;;5160063;27;20461;-57
2023/06/08 07:17:24;;;;;;;5.03;4.00;;;;;;;;;;5159865;27;20466;-59
2023/06/08 07:19:52;;;;;;;6.70;4.10;;;;;;;;;;5160042;27;20482;-59
2023/06/08 07:22:21;;;;;;;11.60;4.13;;;29.40;85.70;;;;;;5158637;27;20497;-56
2023/06/08 07:24:48;;;;;;;5.80;4.70;;;;;;;;;;5158990;27;20507;-59
2023/06/08 07:27:15;;;;;;;6.90;4.23;;;;;;;;;;5158685;27;20491;-59
2023/06/08 07:29:42;;;;;;;4.70;3.33;;;;;;;;;;5159013;27;20920;-61
2023/06/08 07:32:12;;;;;;;7.00;4.33;;;;;;;;;;5158966;27;20443;-60
2023/06/08 07:34:39;;;;;;;7.60;4.37;;;;;;;;;;5158746;27;20515;-60
2023/06/08 07:37:07;;;;;;;4.70;4.20;;;;;;;;;;5158756;27;20507;-60
2023/06/08 07:39:35;;;;;;;8.10;3.97;;;;;;;;;;5173741;27;20449;-58
2023/06/08 07:42:03;;;;;;;8.63;5.00;;;;;;;;;;5179530;27;20513;-60
2023/06/08 07:44:30;;;;;;;4.77;4.30;;;;;;;;;;5179358;27;20446;-60
2023/06/08 07:46:58;;;;;;;4.57;3.93;;;;;;;;;;5179109;27;20917;-61
2023/06/08 07:49:25;;;;;;;6.97;3.77;;;;;;;;;;5178781;27;20442;-59
2023/06/08 07:51:52;;;;;;;8.30;6.20;;;;;;;;;;5178808;27;20493;-60
2023/06/08 07:54:20;;;;;;;7.07;4.60;;;;;;;;;;5178061;27;20516;-60
2023/06/08 07:56:48;;;;;;;7.30;5.13;;;;;;;;;;5178749;27;20446;-60
2023/06/08 07:59:16;;;;;;;9.23;4.00;;;;;;;;;;5178898;27;20820;-61
2023/06/08 08:01:44;;;;;;;7.57;4.87;;;39.20;36.20;;;;;;5178643;27;20978;-60
2023/06/08 08:04:11;;;;;;;17.10;15.20;;;;;;;;;;5177842;27;20863;-58
2023/06/08 08:06:38;;;;;;;11.13;7.53;;;;;;;;;;5178208;27;20529;-58
2023/06/08 08:09:06;;;;;;;13.07;7.17;;;;;;;;;;5178345;27;20988;-58
2023/06/08 08:11:33;;;;;;;12.83;4.93;;;;;;;;;;5179272;27;20438;-59
2023/06/08 08:14:01;;;;;;;6.53;4.30;;;39.40;38.70;;;;;;5178912;27;20564;-59
2023/06/08 08:16:28;;;;;;;7.90;4.07;;;;;;;;;;5178256;27;20458;-59
2023/06/08 08:18:56;;;;;;;6.57;5.50;;;;;;;;;;5178073;27;20476;-57
2023/06/08 08:21:23;;;;;;;4.83;4.13;;;;;;;;;;5177438;27;20505;-61
2023/06/08 08:23:50;;;;;;;4.50;4.10;;;;;;;;;;5176606;27;20848;-61
2023/06/08 08:26:18;;;;;;;5.07;4.57;;;;;;;;;;5176744;27;20445;-61
2023/06/08 08:28:46;;;;;;;5.80;3.80;;;;;;;;;;5176614;27;20473;-61
2023/06/08 08:31:14;;;;;;;5.00;4.07;;;38.90;39.00;;;;;;5178033;27;20426;-61
2023/06/08 08:33:42;;;;;;;5.67;4.87;;;;;;;;;;5181807;27;20848;-59
2023/06/08 08:36:09;;;;;;;5.30;4.43;;;;;;;;;;5182393;27;20469;-60
2023/06/08 08:38:36;;;;;;;6.67;4.40;;;;;;;;;;5175874;27;20850;-60
2023/06/08 08:41:07;;;;;;;6.13;4.10;;;39.00;39.50;;;;;;5160488;27;20542;-62
2023/06/08 08:43:40;;;;;;;5.77;4.57;;;39.00;65.20;;;;;;5160830;27;20950;-62
2023/06/08 08:46:08;;;;;;;4.70;4.20;;;39.00;39.60;;;;;;5160625;27;20434;-60
2023/06/08 08:48:42;;;;;;;6.60;4.13;;;38.90;39.60;;;;;;5161028;27;20465;-60
2023/06/08 08:51:13;;;;;;;8.80;4.60;;;39.00;39.00;;;;;;5160984;27;20530;-62
2023/06/08 08:53:41;;;;;;;3.90;3.50;;;;;;;;;;5161080;27;20453;-59
2023/06/08 08:56:09;;;;;;;7.70;3.97;;;;;;;;;;5161088;27;20748;-58
2023/06/08 08:58:36;;;;;;;5.20;4.70;;;;;;;;;;5160911;27;20500;-57
2023/06/08 09:01:05;;;;;;;4.30;3.90;;;;;;;;;;5161267;27;20474;-60
2023/06/08 09:03:32;;;;;;;4.13;3.60;;;;;;;;;;5161026;27;20464;-62
2023/06/08 09:06:01;;;;;;;4.37;4.00;;;;;;;;;;5160308;27;20512;-62
2023/06/08 09:08:29;;;;;;;8.20;4.80;;;;;;;;;;5164518;27;20441;-60
2023/06/08 09:11:03;;;;;;;7.27;5.43;;;39.00;70.00;;;;;;5181385;27;20461;-59
2023/06/08 09:13:31;;;;;;;5.77;4.20;;;;;;;;;;5172435;27;20452;-60
2023/06/08 09:15:58;;;;;;;5.80;4.50;;;;;;;;;;5166829;27;20461;-60
2023/06/08 09:18:26;;;;;;;5.10;4.53;;;;;;;;;;5171430;27;20533;-59
2023/06/08 09:20:55;;;;;;;5.73;4.70;;;;;;;;;;5172645;27;20746;-61
2023/06/08 09:23:24;;;;;;;6.57;4.50;;;39.40;39.20;;;;;;5178208;27;20817;-60
2023/06/08 09:25:52;;;;;;;5.10;4.23;;;39.10;36.50;;;;;;5168760;27;20948;-58
2023/06/08 09:28:25;;;;;;;5.20;4.53;;;39.20;39.10;;;;;;5172094;27;20434;-61
2023/06/08 09:30:52;;;;;;;5.10;4.60;;;;;;;;;;5174891;27;20470;-61
2023/06/08 09:33:20;;;;;;;4.30;3.90;;;39.30;38.90;;;;;;5165770;27;20529;-61
2023/06/08 09:35:47;;;;;;;4.40;4.00;;;39.40;65.80;;;;;;5168438;27;20539;-61
2023/06/08 09:38:21;;;;;;;5.80;4.27;;;;;;;;;;5170136;27;20433;-61
2023/06/08 09:40:51;;;;;;;4.80;4.40;;;39.10;37.80;;;;;;5174166;27;20478;-59
2023/06/08 09:43:31;;;;;;;4.93;4.43;;;39.50;73.10;;;;;;5173218;27;20550;-59
2023/06/08 09:45:58;;;;;;;6.50;4.63;;;;;;;;;;5166613;27;20541;-54
2023/06/08 09:48:25;;;;;;;6.83;4.77;;;;;;;;;;5182208;27;20442;-59
2023/06/08 09:50:56;;;;;;;5.60;4.33;;;39.10;38.00;;;;;;5181584;27;20440;-59
2023/06/08 09:53:24;;;;;;;4.90;4.37;;;39.10;62.40;;;;;;5180785;27;20470;-59
2023/06/08 09:55:56;;;;;;;6.07;4.70;;;39.20;65.50;;;;;;5181746;27;20505;-59
2023/06/08 09:58:25;;;;;;;4.93;4.53;;;39.40;61.80;;;;;;5182607;27;20430;-60
2023/06/08 10:00:53;;;;;;;10.00;3.97;;;;;;;;;;5182470;27;21168;-61
2023/06/08 10:03:30;;;;;;;4.60;4.17;;;39.20;37.50;;;;;;5170110;27;20583;-62
2023/06/08 10:05:59;;;;;;;6.73;5.30;;;39.30;36.80;;;;;;5171934;27;20445;-58
2023/06/08 10:08:28;;;;;;;7.60;5.90;;;39.20;36.80;;;;;;5177104;27;20769;-59
2023/06/08 10:10:57;;;;;;;4.23;3.83;;;39.30;37.30;;;;;;5178527;27;20499;-59
2023/06/08 10:13:25;;;;;;;6.07;4.43;;;;;;;;;;5171347;27;20426;-59
2023/06/08 10:15:53;;;;;;;7.43;5.33;;;38.60;35.80;;;;;;5162960;27;20455;-59
2023/06/08 10:18:20;;;;;;;5.90;4.63;;;;;;;;;;5173722;27;20489;-58
2023/06/08 10:20:47;;;;;;;4.97;4.50;;;38.40;70.60;;;;;;5173302;27;20447;-60
2023/06/08 10:23:15;;;;;;;5.10;4.60;;;;;;;;;;5161149;27;20490;-59
2023/06/08 10:25:44;;;;;;;4.93;4.47;;;38.00;64.40;;;;;;5162455;27;20462;-59
2023/06/08 10:28:14;;;;;;;5.77;5.00;;;;;;;;;;5170509;27;20540;-59
2023/06/08 10:30:42;;;;;;;4.50;3.80;;;;;;;;;;5180670;27;20464;-60
2023/06/08 10:33:10;;;;;;;4.47;4.07;;;37.10;40.20;;;;;;5162199;27;20771;-58
2023/06/08 10:35:40;;;;;;;4.53;4.13;;;37.00;73.40;;;;;;5159936;27;20443;-59
2023/06/08 10:38:11;;;;;;;4.60;4.20;;;37.10;73.40;;;;;;5171675;27;20498;-58
2023/06/08 10:40:46;;;;;;;5.67;4.73;;;36.60;61.60;;;;;;5180756;27;20442;-60
2023/06/08 10:43:15;;;;;;;4.40;4.00;;;36.50;41.70;;;;;;5177709;27;21012;-59
2023/06/08 10:45:45;;;;;;;6.60;4.73;;;36.10;42.20;;;;;;5170675;27;20800;-61
2023/06/08 10:48:16;;;;;;;7.43;5.53;;;35.80;38.90;;;;;;5170383;27;20473;-59
2023/06/08 10:50:44;;;;;;;8.87;6.00;;;35.40;39.60;;;;;;5161696;27;20451;-59
2023/06/08 10:53:11;;;;;;;5.03;4.53;;;;;;;;;;5159630;27;20447;-59
2023/06/08 10:55:38;;;;;;;7.83;4.80;;;35.40;73.20;;;;;;5158743;27;20470;-59
2023/06/08 10:58:18;;;;;;;8.10;5.00;;;34.70;37.80;;;;;;5159534;27;20515;-59
2023/06/08 11:00:46;;;;;;;5.50;5.00;;;34.30;74.00;;;;;;5159357;27;20423;-56
2023/06/08 11:03:16;;;;;;;5.10;4.40;;;34.70;44.20;;;;;;5171681;27;20491;-60
2023/06/08 11:05:45;;;;;;;4.90;4.40;;;34.40;78.10;;;;;;5164651;27;20462;-60
2023/06/08 11:08:12;;;;;;;5.40;4.17;;;;;;;;;;5166566;27;20502;-59
2023/06/08 11:10:40;;;;;;;4.97;4.47;;;;;;;;;;5171740;27;20478;-60
2023/06/08 11:13:08;;;;;;;6.20;4.33;;;34.00;44.50;;;;;;5180471;27;20438;-58
2023/06/08 11:15:41;;;;;;;4.73;4.27;;;34.40;45.00;;;;;;5179301;27;20526;-61
2023/06/08 11:18:08;;;;;;;8.93;4.33;;;;;;;;;;5180045;27;20524;-59
2023/06/08 11:20:37;;;;;;;11.43;4.90;;;33.80;82.40;;;;;;5179916;27;20461;-60
2023/06/08 11:23:07;;;;;;;7.53;4.23;;;33.60;45.80;;;;;;5179180;27;20533;-61
2023/06/08 11:25:35;;;;;;;4.60;4.20;;;;;;;;;;5179824;27;20793;-59
2023/06/08 11:28:02;;;;;;;5.23;4.73;;;;;;;;;;5179785;27;20441;-60
2023/06/08 11:30:31;;;;;;;8.77;4.90;;;33.50;45.90;;;;;;5179006;27;20933;-58
2023/06/08 11:33:01;;;;;;;5.40;4.87;;;33.50;42.20;;;;;;5172309;27;20467;-59
2023/06/08 11:35:28;;;;;;;6.47;4.53;;;;;;;;;;5165662;27;20468;-59
2023/06/08 11:37:56;;;;;;;4.67;4.17;;;33.40;45.40;;;;;;5171888;27;20438;-58
2023/06/08 11:40:23;;;;;;;6.33;4.70;;;33.60;81.50;;;;;;5160147;27;20506;-58
2023/06/08 11:42:51;;;;;;;6.23;4.23;;;;;;;;;;5168484;27;20513;-60
2023/06/08 11:45:18;;;;;;;5.37;4.70;;;;;;;;;;5173564;27;21712;-59
2023/06/08 11:47:46;;;;;;;5.87;4.30;;;33.10;74.40;;;;;;5169139;27;20431;-60
2023/06/08 11:50:16;;;;;;;5.23;4.73;;;32.90;80.90;;;;;;5168780;27;20450;-60
2023/06/08 11:52:43;;;;;;;4.57;4.17;;;33.00;80.70;;;;;;5166783;27;20513;-59
2023/06/08 11:55:15;;;;;;;13.53;5.77;;;33.40;83.50;;;;;;5165973;27;20499;-59
2023/06/08 11:57:44;;;;;;;6.07;4.83;;;32.80;45.70;;;;;;5165338;27;20445;-59
2023/06/08 12:00:16;;;;;;;5.73;4.40;;;32.90;74.90;;;;;;5163808;27;20442;-61
2023/06/08 12:02:43;;;;;;;6.20;5.60;;;;;;;;;;5158628;27;20467;-58
2023/06/08 12:05:16;;;;;;;6.73;5.60;;;33.00;46.00;;;;;;5158466;27;20475;-59
2023/06/08 12:07:54;;;;;;;5.10;4.60;;;32.90;41.30;;;;;;5158705;27;20541;-59
2023/06/08 12:10:22;;;;;;;6.80;4.97;;;32.90;74.00;;;;;;5160563;27;20457;-62
2023/06/08 12:12:49;;;;;;;5.90;4.60;;;;;;;;;;5164497;27;20441;-61
2023/06/08 12:15:17;;;;;;;4.93;4.43;;;32.90;60.60;;;;;;5174997;27;20467;-59
2023/06/08 12:17:46;;;;;;;5.70;4.80;;;;;;;;;;5178902;27;20446;-59
2023/06/08 12:20:17;;;;;;;8.27;5.20;;;32.10;80.70;;;;;;5162614;27;20482;-59
2023/06/08 12:22:45;;;;;;;10.07;4.93;;;;;;;;;;5158123;27;20478;-60
2023/06/08 12:25:12;;;;;;;5.17;4.67;;;;;;;;;;5158063;27;21129;-60
2023/06/08 12:27:40;;;;;;;6.90;4.50;;;;;;;;;;5157434;27;20482;-60
2023/06/08 12:30:09;;;;;;;4.97;4.30;;;31.10;77.70;;;;;;5163668;27;20547;-65
2023/06/08 12:32:36;;;;;;;6.00;5.40;;;;;;;;;;5167599;27;20509;-59
2023/06/08 12:35:04;;;;;;;6.10;5.37;;;30.90;88.00;;;;;;5166049;27;20523;-57
2023/06/08 12:37:32;;;;;;;8.27;5.10;;;31.50;88.20;;;;;;5160012;27;20449;-52
2023/06/08 12:40:00;;;;;;;5.60;5.00;;;;;;;;;;5173478;27;20797;-61
2023/06/08 12:42:31;;;;;;;8.50;5.30;;;;;;;;;;5166813;27;20468;-58
2023/06/08 12:44:58;;;;;;;5.60;4.80;;;;;;;;;;5166687;27;20482;-59
2023/06/08 12:47:25;;;;;;;9.70;4.70;;;;;;;;;;5156020;27;20485;-58
2023/06/08 12:49:53;;;;;;;8.27;4.57;;;31.10;83.70;;;;;;5154853;27;20937;-57
2023/06/08 12:52:20;;;;;;;4.93;4.20;;;;;;;;;;5155968;27;20462;-59
2023/06/08 12:54:50;;;;;;;5.60;5.10;;;30.70;49.30;;;;;;5157610;27;20445;-57
2023/06/08 12:57:17;;;;;;;5.90;4.93;;;30.50;64.70;;;;;;5166191;27;20493;-58
2023/06/08 12:59:44;;;;;;;6.03;5.10;;;;;;;;;;5168002;27;20468;-59
2023/06/08 13:02:12;;;;;;;4.70;4.30;;;;;;;;;;5155874;27;20524;-59
2023/06/08 13:04:39;;;;;;;6.00;4.93;;;;;;;;;;5155581;27;20546;-59
2023/06/08 13:07:06;;;;;;;5.80;5.30;;;31.30;48.70;;;;;;5164180;27;20446;-59
2023/06/08 13:09:34;;;;;;;5.60;5.00;;;;;;;;;;5169901;27;20462;-56
2023/06/08 13:12:02;;;;;;;5.47;4.97;;;30.70;49.80;;;;;;5161225;27;20450;-54
2023/06/08 13:14:30;;;;;;;5.73;4.90;;;;;;;;;;5177919;27;20450;-52
2023/06/08 13:16:57;;;;;;;11.40;4.80;;;;;;;;;;5174104;27;20431;-50
2023/06/08 13:19:24;;;;;;;5.20;4.70;;;;;;;;;;5180650;27;20406;-58
2023/06/08 13:21:52;;;;;;;6.83;5.50;;;;;;;;;;5166832;27;20411;-61
2023/06/08 13:24:20;;;;;;;6.37;4.60;;;;;;;;;;5159068;27;20474;-58
2023/06/08 13:26:48;;;;;;;6.50;5.13;;;;;;;;;;5162102;27;20504;-54
2023/06/08 13:29:24;;;;;;;5.03;4.53;;;;;;;;;;5182648;27;20409;-50
2023/06/08 13:31:51;;;;;;;5.13;4.10;;;30.80;78.50;;;;;;5182793;27;20462;-54
2023/06/08 13:34:18;;;;;;;5.43;4.47;;;;;;;;;;5181720;27;20422;-58
2023/06/08 13:36:46;;;;;;;5.10;4.70;;;;;;;;;;5166725;27;20450;-58
2023/06/08 13:39:13;;;;;;;11.20;4.57;;;;;;;;;;5164292;27;20491;-61
2023/06/08 13:41:40;;;;;;;5.33;4.80;;;;;;;;;;5159989;27;20497;-61
2023/06/08 13:44:07;;;;;;;5.40;4.90;;;;;;;;;;5161690;27;20506;-59
2023/06/08 13:46:36;;;;;;;6.00;5.50;;;31.80;48.50;;;;;;5162216;27;20438;-58
2023/06/08 13:49:03;;;;;;;6.43;5.23;;;;;;;;;;5164262;27;20550;-58
2023/06/08 13:51:32;;;;;;;5.23;4.73;;;;;;;;;;5159927;27;20944;-59
2023/06/08 13:53:59;;;;;;;8.57;5.63;;;;;;;;;;5158576;27;20474;-61
2023/06/08 13:56:27;;;;;;;7.17;5.27;;;;;;;;;;5158281;27;20423;-58
2023/06/08 13:58:58;;;;;;;5.13;4.60;;;32.00;46.20;;;;;;5170535;27;20933;-61
2023/06/08 14:01:25;;;;;;;5.20;4.80;;;;;;;;;;5179639;27;20426;-63
2023/06/08 14:03:54;;;;;;;6.30;5.20;;;32.30;46.80;;;;;;5179966;27;20860;-58
2023/06/08 14:06:21;;;;;;;6.00;4.33;;;;;;;;;;5180443;27;20980;-59
2023/06/08 14:08:48;;;;;;;6.00;4.53;;;;;;;;;;5181275;27;20493;-58